sensor_id;sensor_type;location;lat;lon;timestamp;temperature;humidity
75010;DHT22;63564;46.840;18.336;2022-10-16T00:00:37;13.11;76.22
75010;DHT22;63564;46.840;18.336;2022-10-16T00:03:40;13.05;76.23
75010;DHT22;63564;46.840;18.336;2022-10-16T00:06:40;13.06;76.17
75010;DHT22;63564;46.840;18.336;2022-10-16T00:09:41;13.08;76.12
75010;DHT22;63564;46.840;18.336;2022-10-16T00:12:41;13.04;76.22
75010;DHT22;63564;46.840;18.336;2022-10-16T00:15:42;13.01;76.35
75010;DHT22;63564;46.840;18.336;2022-10-16T00:18:44;12.97;76.48
75010;DHT22;63564;46.840;18.336;2022-10-16T00:21:44;12.92;76.60
75010;DHT22;63564;46.840;18.336;2022-10-16T00:24:44;12.91;76.49
75010;DHT22;63564;46.840;18.336;2022-10-16T00:27:45;12.92;76.69
75010;DHT22;63564;46.840;18.336;2022-10-16T00:30:45;12.94;76.66
75010;DHT22;63564;46.840;18.336;2022-10-16T00:33:45;12.92;76.62
75010;DHT22;63564;46.840;18.336;2022-10-16T00:36:46;12.89;76.89
75010;DHT22;63564;46.840;18.336;2022-10-16T00:39:46;12.81;76.97
75010;DHT22;63564;46.840;18.336;2022-10-16T00:42:47;12.81;76.98
75010;DHT22;63564;46.840;18.336;2022-10-16T00:45:47;12.81;77.20
75010;DHT22;63564;46.840;18.336;2022-10-16T00:51:54;12.63;77.81
75010;DHT22;63564;46.840;18.336;2022-10-16T00:54:55;12.53;78.20
75010;DHT22;63564;46.840;18.336;2022-10-16T00:57:57;12.19;79.35
75010;DHT22;63564;46.840;18.336;2022-10-16T01:00:58;11.81;80.32
75010;DHT22;63564;46.840;18.336;2022-10-16T01:03:58;11.81;80.03
75010;DHT22;63564;46.840;18.336;2022-10-16T01:10:17;11.46;81.59
75010;DHT22;63564;46.840;18.336;2022-10-16T01:13:25;11.47;81.27
75010;DHT22;63564;46.840;18.336;2022-10-16T01:16:35;11.23;82.35
75010;DHT22;63564;46.840;18.336;2022-10-16T01:32:59;11.61;81.43
75010;DHT22;63564;46.840;18.336;2022-10-16T01:36:09;11.68;81.34
75010;DHT22;63564;46.840;18.336;2022-10-16T01:39:11;11.79;81.01
75010;DHT22;63564;46.840;18.336;2022-10-16T01:42:19;11.79;81.13
75010;DHT22;63564;46.840;18.336;2022-10-16T01:45:21;11.89;80.43
75010;DHT22;63564;46.840;18.336;2022-10-16T01:48:23;11.92;80.62
75010;DHT22;63564;46.840;18.336;2022-10-16T01:51:24;11.96;80.02
75010;DHT22;63564;46.840;18.336;2022-10-16T01:54:30;11.89;80.17
75010;DHT22;63564;46.840;18.336;2022-10-16T01:57:32;11.75;80.91
75010;DHT22;63564;46.840;18.336;2022-10-16T02:00:38;11.44;81.82
75010;DHT22;63564;46.840;18.336;2022-10-16T02:03:41;11.26;82.17
75010;DHT22;63564;46.840;18.336;2022-10-16T02:06:42;11.22;82.18
75010;DHT22;63564;46.840;18.336;2022-10-16T02:09:43;11.02;83.05
75010;DHT22;63564;46.840;18.336;2022-10-16T02:12:53;11.03;83.01
75010;DHT22;63564;46.840;18.336;2022-10-16T02:15:56;10.98;83.61
75010;DHT22;63564;46.840;18.336;2022-10-16T02:18:57;10.95;83.63
75010;DHT22;63564;46.840;18.336;2022-10-16T02:22:00;10.99;83.74
75010;DHT22;63564;46.840;18.336;2022-10-16T02:25:51;11.06;83.00
75010;DHT22;63564;46.840;18.336;2022-10-16T02:28:48;11.08;83.04
75010;DHT22;63564;46.840;18.336;2022-10-16T02:31:59;11.06;83.98
75010;DHT22;63564;46.840;18.336;2022-10-16T02:35:20;11.06;83.50
75010;DHT22;63564;46.840;18.336;2022-10-16T02:38:21;11.12;83.38
75010;DHT22;63564;46.840;18.336;2022-10-16T02:41:23;10.95;83.58
75010;DHT22;63564;46.840;18.336;2022-10-16T02:44:24;10.78;84.52
75010;DHT22;63564;46.840;18.336;2022-10-16T02:47:24;10.67;84.43
75010;DHT22;63564;46.840;18.336;2022-10-16T02:50:24;10.57;85.27
75010;DHT22;63564;46.840;18.336;2022-10-16T02:53:25;10.52;84.91
75010;DHT22;63564;46.840;18.336;2022-10-16T02:56:25;10.48;85.27
75010;DHT22;63564;46.840;18.336;2022-10-16T02:59:25;10.36;85.50
75010;DHT22;63564;46.840;18.336;2022-10-16T03:02:26;10.21;86.13
75010;DHT22;63564;46.840;18.336;2022-10-16T03:05:26;10.23;85.95
75010;DHT22;63564;46.840;18.336;2022-10-16T03:08:26;10.30;85.69
75010;DHT22;63564;46.840;18.336;2022-10-16T03:11:27;10.36;85.60
75010;DHT22;63564;46.840;18.336;2022-10-16T03:14:28;10.43;85.10
75010;DHT22;63564;46.840;18.336;2022-10-16T03:17:28;10.37;85.16
75010;DHT22;63564;46.840;18.336;2022-10-16T03:20:28;10.48;84.68
75010;DHT22;63564;46.840;18.336;2022-10-16T03:23:29;10.58;84.19
75010;DHT22;63564;46.840;18.336;2022-10-16T03:26:29;10.54;84.37
75010;DHT22;63564;46.840;18.336;2022-10-16T03:29:30;10.43;84.66
75010;DHT22;63564;46.840;18.336;2022-10-16T03:32:30;10.45;84.37
75010;DHT22;63564;46.840;18.336;2022-10-16T03:35:31;10.47;84.67
75010;DHT22;63564;46.840;18.336;2022-10-16T03:38:32;10.47;84.55
75010;DHT22;63564;46.840;18.336;2022-10-16T03:41:32;10.31;85.08
75010;DHT22;63564;46.840;18.336;2022-10-16T03:44:32;10.29;85.07
75010;DHT22;63564;46.840;18.336;2022-10-16T03:47:33;10.33;84.80
75010;DHT22;63564;46.840;18.336;2022-10-16T03:50:33;10.33;84.93
75010;DHT22;63564;46.840;18.336;2022-10-16T03:53:33;10.36;84.68
75010;DHT22;63564;46.840;18.336;2022-10-16T03:56:34;10.36;84.50
75010;DHT22;63564;46.840;18.336;2022-10-16T03:59:34;10.27;85.39
75010;DHT22;63564;46.840;18.336;2022-10-16T04:02:34;10.00;87.82
75010;DHT22;63564;46.840;18.336;2022-10-16T04:05:35;10.02;87.00
75010;DHT22;63564;46.840;18.336;2022-10-16T04:08:35;10.03;85.98
75010;DHT22;63564;46.840;18.336;2022-10-16T04:11:36;10.07;86.09
75010;DHT22;63564;46.840;18.336;2022-10-16T04:14:37;9.93;86.90
75010;DHT22;63564;46.840;18.336;2022-10-16T04:17:37;9.83;87.78
75010;DHT22;63564;46.840;18.336;2022-10-16T04:20:38;9.76;87.42
75010;DHT22;63564;46.840;18.336;2022-10-16T04:23:38;9.66;87.52
75010;DHT22;63564;46.840;18.336;2022-10-16T04:26:38;9.61;87.73
75010;DHT22;63564;46.840;18.336;2022-10-16T04:29:39;9.59;88.43
75010;DHT22;63564;46.840;18.336;2022-10-16T04:32:40;9.51;88.12
75010;DHT22;63564;46.840;18.336;2022-10-16T04:35:40;9.49;87.85
75010;DHT22;63564;46.840;18.336;2022-10-16T04:38:40;9.44;88.23
75010;DHT22;63564;46.840;18.336;2022-10-16T04:41:41;9.51;87.99
75010;DHT22;63564;46.840;18.336;2022-10-16T04:44:41;9.57;87.81
75010;DHT22;63564;46.840;18.336;2022-10-16T04:47:42;9.58;88.30
75010;DHT22;63564;46.840;18.336;2022-10-16T04:50:42;9.42;89.32
75010;DHT22;63564;46.840;18.336;2022-10-16T04:53:42;9.48;88.08
75010;DHT22;63564;46.840;18.336;2022-10-16T04:56:43;9.09;90.30
75010;DHT22;63564;46.840;18.336;2022-10-16T04:59:47;9.26;89.40
75010;DHT22;63564;46.840;18.336;2022-10-16T05:02:49;9.42;88.44
75010;DHT22;63564;46.840;18.336;2022-10-16T05:05:49;9.35;89.12
75010;DHT22;63564;46.840;18.336;2022-10-16T05:08:49;9.26;89.85
75010;DHT22;63564;46.840;18.336;2022-10-16T05:11:50;9.30;88.78
75010;DHT22;63564;46.840;18.336;2022-10-16T05:14:50;9.26;89.29
75010;DHT22;63564;46.840;18.336;2022-10-16T05:17:54;9.16;89.38
75010;DHT22;63564;46.840;18.336;2022-10-16T05:20:55;9.23;89.14
75010;DHT22;63564;46.840;18.336;2022-10-16T05:23:55;9.23;90.04
75010;DHT22;63564;46.840;18.336;2022-10-16T05:26:56;9.24;89.98
75010;DHT22;63564;46.840;18.336;2022-10-16T05:29:56;9.26;89.41
75010;DHT22;63564;46.840;18.336;2022-10-16T05:32:56;9.21;88.88
75010;DHT22;63564;46.840;18.336;2022-10-16T05:36:01;9.21;88.73
75010;DHT22;63564;46.840;18.336;2022-10-16T05:39:01;9.27;89.07
75010;DHT22;63564;46.840;18.336;2022-10-16T05:42:02;9.34;89.88
75010;DHT22;63564;46.840;18.336;2022-10-16T05:45:04;9.35;89.33
75010;DHT22;63564;46.840;18.336;2022-10-16T05:48:05;9.37;88.94
75010;DHT22;63564;46.840;18.336;2022-10-16T05:51:08;9.44;89.21
75010;DHT22;63564;46.840;18.336;2022-10-16T05:54:09;9.54;88.27
75010;DHT22;63564;46.840;18.336;2022-10-16T05:57:09;9.71;87.71
75010;DHT22;63564;46.840;18.336;2022-10-16T06:00:10;9.92;86.85
75010;DHT22;63564;46.840;18.336;2022-10-16T06:03:10;10.09;86.79
75010;DHT22;63564;46.840;18.336;2022-10-16T06:06:13;9.97;87.53
75010;DHT22;63564;46.840;18.336;2022-10-16T06:09:14;10.02;87.60
75010;DHT22;63564;46.840;18.336;2022-10-16T06:12:15;10.07;87.94
75010;DHT22;63564;46.840;18.336;2022-10-16T06:15:15;10.17;87.16
75010;DHT22;63564;46.840;18.336;2022-10-16T06:18:15;10.41;86.71
75010;DHT22;63564;46.840;18.336;2022-10-16T06:21:18;10.78;85.40
75010;DHT22;63564;46.840;18.336;2022-10-16T06:24:19;11.02;84.48
75010;DHT22;63564;46.840;18.336;2022-10-16T06:27:19;11.23;83.84
75010;DHT22;63564;46.840;18.336;2022-10-16T06:30:19;11.44;83.20
75010;DHT22;63564;46.840;18.336;2022-10-16T06:33:20;11.67;82.51
75010;DHT22;63564;46.840;18.336;2022-10-16T06:36:20;11.85;81.67
75010;DHT22;63564;46.840;18.336;2022-10-16T06:39:21;11.99;80.99
75010;DHT22;63564;46.840;18.336;2022-10-16T06:42:21;12.19;80.53
75010;DHT22;63564;46.840;18.336;2022-10-16T06:45:21;12.30;80.06
75010;DHT22;63564;46.840;18.336;2022-10-16T06:48:23;12.44;79.86
75010;DHT22;63564;46.840;18.336;2022-10-16T06:51:24;12.33;79.26
75010;DHT22;63564;46.840;18.336;2022-10-16T06:54:25;12.40;80.72
75010;DHT22;63564;46.840;18.336;2022-10-16T06:57:26;12.57;79.60
75010;DHT22;63564;46.840;18.336;2022-10-16T07:00:26;12.63;79.37
75010;DHT22;63564;46.840;18.336;2022-10-16T07:03:27;12.56;80.16
75010;DHT22;63564;46.840;18.336;2022-10-16T07:06:31;12.92;78.55
75010;DHT22;63564;46.840;18.336;2022-10-16T07:09:31;12.89;79.51
75010;DHT22;63564;46.840;18.336;2022-10-16T07:12:32;13.16;78.17
75010;DHT22;63564;46.840;18.336;2022-10-16T07:15:33;13.35;76.83
75010;DHT22;63564;46.840;18.336;2022-10-16T07:18:34;13.60;75.64
75010;DHT22;63564;46.840;18.336;2022-10-16T07:21:34;13.49;77.60
75010;DHT22;63564;46.840;18.336;2022-10-16T07:24:38;13.33;77.66
75010;DHT22;63564;46.840;18.336;2022-10-16T07:27:38;13.54;76.68
75010;DHT22;63564;46.840;18.336;2022-10-16T07:30:39;13.67;76.50
75010;DHT22;63564;46.840;18.336;2022-10-16T07:33:40;13.88;75.46
75010;DHT22;63564;46.840;18.336;2022-10-16T07:36:43;13.98;75.12
75010;DHT22;63564;46.840;18.336;2022-10-16T07:39:43;14.04;75.24
75010;DHT22;63564;46.840;18.336;2022-10-16T07:42:43;14.21;75.11
75010;DHT22;63564;46.840;18.336;2022-10-16T07:45:48;14.32;74.65
75010;DHT22;63564;46.840;18.336;2022-10-16T07:48:49;14.50;73.91
75010;DHT22;63564;46.840;18.336;2022-10-16T07:51:50;14.66;73.85
75010;DHT22;63564;46.840;18.336;2022-10-16T07:54:50;14.94;71.13
75010;DHT22;63564;46.840;18.336;2022-10-16T07:57:50;15.24;70.62
75010;DHT22;63564;46.840;18.336;2022-10-16T08:00:51;15.43;70.86
75010;DHT22;63564;46.840;18.336;2022-10-16T08:03:51;15.59;70.14
75010;DHT22;63564;46.840;18.336;2022-10-16T08:06:52;15.80;69.53
75010;DHT22;63564;46.840;18.336;2022-10-16T08:09:54;15.82;69.40
75010;DHT22;63564;46.840;18.336;2022-10-16T08:12:56;16.04;69.43
75010;DHT22;63564;46.840;18.336;2022-10-16T08:15:57;16.28;68.02
75010;DHT22;63564;46.840;18.336;2022-10-16T08:18:57;16.48;67.75
75010;DHT22;63564;46.840;18.336;2022-10-16T08:21:58;16.64;68.12
75010;DHT22;63564;46.840;18.336;2022-10-16T08:24:58;16.76;65.55
75010;DHT22;63564;46.840;18.336;2022-10-16T08:27:58;16.83;65.93
75010;DHT22;63564;46.840;18.336;2022-10-16T08:31:10;17.06;64.82
75010;DHT22;63564;46.840;18.336;2022-10-16T08:34:11;17.14;65.25
75010;DHT22;63564;46.840;18.336;2022-10-16T08:37:11;17.28;67.07
75010;DHT22;63564;46.840;18.336;2022-10-16T08:40:19;17.51;64.16
75010;DHT22;63564;46.840;18.336;2022-10-16T08:49:41;17.68;63.05
75010;DHT22;63564;46.840;18.336;2022-10-16T08:52:44;17.61;65.43
75010;DHT22;63564;46.840;18.336;2022-10-16T08:55:46;17.90;61.27
75010;DHT22;63564;46.840;18.336;2022-10-16T08:58:52;17.75;61.86
75010;DHT22;63564;46.840;18.336;2022-10-16T09:01:53;17.58;63.84
75010;DHT22;63564;46.840;18.336;2022-10-16T09:05:18;18.07;62.07
75010;DHT22;63564;46.840;18.336;2022-10-16T09:08:35;18.23;60.87
75010;DHT22;63564;46.840;18.336;2022-10-16T09:11:43;18.37;60.90
75010;DHT22;63564;46.840;18.336;2022-10-16T09:14:58;18.45;60.52
75010;DHT22;63564;46.840;18.336;2022-10-16T09:21:16;18.69;59.75
75010;DHT22;63564;46.840;18.336;2022-10-16T09:24:20;18.73;59.92
75010;DHT22;63564;46.840;18.336;2022-10-16T09:27:21;18.72;59.96
75010;DHT22;63564;46.840;18.336;2022-10-16T09:30:26;19.02;61.38
75010;DHT22;63564;46.840;18.336;2022-10-16T09:33:33;19.13;59.71
75010;DHT22;63564;46.840;18.336;2022-10-16T09:36:40;19.26;58.75
75010;DHT22;63564;46.840;18.336;2022-10-16T09:39:47;19.31;58.40
75010;DHT22;63564;46.840;18.336;2022-10-16T09:42:48;19.30;59.26
75010;DHT22;63564;46.840;18.336;2022-10-16T09:46:02;19.26;59.22
75010;DHT22;63564;46.840;18.336;2022-10-16T09:49:16;19.49;57.67
75010;DHT22;63564;46.840;18.336;2022-10-16T09:52:19;19.36;57.79
75010;DHT22;63564;46.840;18.336;2022-10-16T09:55:19;19.43;58.38
75010;DHT22;63564;46.840;18.336;2022-10-16T09:58:23;19.37;58.21
75010;DHT22;63564;46.840;18.336;2022-10-16T10:04:50;19.54;58.12
75010;DHT22;63564;46.840;18.336;2022-10-16T10:07:59;19.71;57.94
75010;DHT22;63564;46.840;18.336;2022-10-16T10:11:00;19.71;56.43
75010;DHT22;63564;46.840;18.336;2022-10-16T10:14:18;19.96;57.27
75010;DHT22;63564;46.840;18.336;2022-10-16T10:17:19;20.18;55.82
75010;DHT22;63564;46.840;18.336;2022-10-16T10:20:27;19.89;56.71
75010;DHT22;63564;46.840;18.336;2022-10-16T10:23:29;19.79;56.77
75010;DHT22;63564;46.840;18.336;2022-10-16T10:26:31;20.05;58.49
75010;DHT22;63564;46.840;18.336;2022-10-16T10:33:08;20.49;55.37
75010;DHT22;63564;46.840;18.336;2022-10-16T10:39:36;20.49;54.67
75010;DHT22;63564;46.840;18.336;2022-10-16T10:42:50;20.54;53.71
75010;DHT22;63564;46.840;18.336;2022-10-16T10:45:59;20.46;53.17
75010;DHT22;63564;46.840;18.336;2022-10-16T10:49:45;20.44;54.37
75010;DHT22;63564;46.840;18.336;2022-10-16T10:59:45;20.73;53.24
75010;DHT22;63564;46.840;18.336;2022-10-16T11:06:16;20.80;52.83
75010;DHT22;63564;46.840;18.336;2022-10-16T11:09:19;21.04;52.85
75010;DHT22;63564;46.840;18.336;2022-10-16T11:15:25;21.08;53.57
75010;DHT22;63564;46.840;18.336;2022-10-16T11:18:38;21.09;52.21
75010;DHT22;63564;46.840;18.336;2022-10-16T11:21:48;21.04;53.35
75010;DHT22;63564;46.840;18.336;2022-10-16T11:25:00;21.28;51.47
75010;DHT22;63564;46.840;18.336;2022-10-16T11:37:36;21.25;51.86
75010;DHT22;63564;46.840;18.336;2022-10-16T11:40:41;21.41;51.27
75010;DHT22;63564;46.840;18.336;2022-10-16T11:43:50;21.50;50.85
75010;DHT22;63564;46.840;18.336;2022-10-16T11:47:11;21.62;50.30
75010;DHT22;63564;46.840;18.336;2022-10-16T11:50:31;21.60;50.55
75010;DHT22;63564;46.840;18.336;2022-10-16T11:56:40;21.26;50.86
75010;DHT22;63564;46.840;18.336;2022-10-16T11:59:58;21.31;50.97
75010;DHT22;63564;46.840;18.336;2022-10-16T12:06:22;21.72;50.33
75010;DHT22;63564;46.840;18.336;2022-10-16T12:09:28;21.70;49.22
75010;DHT22;63564;46.840;18.336;2022-10-16T12:15:35;21.74;49.33
75010;DHT22;63564;46.840;18.336;2022-10-16T12:18:36;21.66;51.13
75010;DHT22;63564;46.840;18.336;2022-10-16T12:21:36;21.73;50.24
75010;DHT22;63564;46.840;18.336;2022-10-16T12:24:41;21.74;49.43
75010;DHT22;63564;46.840;18.336;2022-10-16T12:27:42;21.60;51.11
75010;DHT22;63564;46.840;18.336;2022-10-16T12:30:43;21.83;49.88
75010;DHT22;63564;46.840;18.336;2022-10-16T12:34:00;22.01;50.11
75010;DHT22;63564;46.840;18.336;2022-10-16T12:37:29;22.10;48.43
75010;DHT22;63564;46.840;18.336;2022-10-16T12:40:33;22.39;48.75
75010;DHT22;63564;46.840;18.336;2022-10-16T12:43:36;22.32;47.78
75010;DHT22;63564;46.840;18.336;2022-10-16T12:46:39;22.62;48.08
75010;DHT22;63564;46.840;18.336;2022-10-16T12:49:48;22.76;47.01
75010;DHT22;63564;46.840;18.336;2022-10-16T12:52:49;22.35;47.82
75010;DHT22;63564;46.840;18.336;2022-10-16T12:56:02;22.48;47.92
75010;DHT22;63564;46.840;18.336;2022-10-16T13:18:24;21.81;49.87
75010;DHT22;63564;46.840;18.336;2022-10-16T13:21:38;21.81;49.84
75010;DHT22;63564;46.840;18.336;2022-10-16T13:27:56;21.73;49.40
75010;DHT22;63564;46.840;18.336;2022-10-16T13:31:00;21.70;50.25
75010;DHT22;63564;46.840;18.336;2022-10-16T13:34:01;21.83;50.33
75010;DHT22;63564;46.840;18.336;2022-10-16T13:37:20;21.81;50.07
75010;DHT22;63564;46.840;18.336;2022-10-16T13:40:23;21.64;50.54
75010;DHT22;63564;46.840;18.336;2022-10-16T13:43:31;21.67;49.13
75010;DHT22;63564;46.840;18.336;2022-10-16T13:46:32;21.63;49.53
75010;DHT22;63564;46.840;18.336;2022-10-16T13:49:34;21.70;49.26
75010;DHT22;63564;46.840;18.336;2022-10-16T13:52:34;21.76;48.98
75010;DHT22;63564;46.840;18.336;2022-10-16T13:55:35;21.66;49.44
75010;DHT22;63564;46.840;18.336;2022-10-16T13:58:36;21.50;49.55
75010;DHT22;63564;46.840;18.336;2022-10-16T14:01:41;21.50;50.93
75010;DHT22;63564;46.840;18.336;2022-10-16T14:04:42;21.47;49.90
75010;DHT22;63564;46.840;18.336;2022-10-16T14:07:43;21.53;50.11
75010;DHT22;63564;46.840;18.336;2022-10-16T14:10:48;21.53;50.99
75010;DHT22;63564;46.840;18.336;2022-10-16T14:13:49;21.49;49.87
75010;DHT22;63564;46.840;18.336;2022-10-16T14:16:50;21.52;49.49
75010;DHT22;63564;46.840;18.336;2022-10-16T14:19:53;21.72;49.24
75010;DHT22;63564;46.840;18.336;2022-10-16T14:23:03;21.90;48.23
75010;DHT22;63564;46.840;18.336;2022-10-16T14:29:19;21.96;48.37
75010;DHT22;63564;46.840;18.336;2022-10-16T14:32:23;21.83;50.06
75010;DHT22;63564;46.840;18.336;2022-10-16T14:35:36;21.77;49.76
75010;DHT22;63564;46.840;18.336;2022-10-16T14:38:39;21.70;49.43
75010;DHT22;63564;46.840;18.336;2022-10-16T14:41:48;21.84;49.66
75010;DHT22;63564;46.840;18.336;2022-10-16T14:44:50;21.59;49.56
75010;DHT22;63564;46.840;18.336;2022-10-16T14:47:57;21.22;49.92
75010;DHT22;63564;46.840;18.336;2022-10-16T14:50:57;21.09;50.20
75010;DHT22;63564;46.840;18.336;2022-10-16T14:53:58;20.99;50.85
75010;DHT22;63564;46.840;18.336;2022-10-16T14:56:58;20.94;51.48
75010;DHT22;63564;46.840;18.336;2022-10-16T14:59:59;20.83;51.51
75010;DHT22;63564;46.840;18.336;2022-10-16T15:02:59;20.66;51.86
75010;DHT22;63564;46.840;18.336;2022-10-16T15:06:00;20.56;52.29
75010;DHT22;63564;46.840;18.336;2022-10-16T15:09:00;20.37;52.79
75010;DHT22;63564;46.840;18.336;2022-10-16T15:12:01;20.30;52.79
75010;DHT22;63564;46.840;18.336;2022-10-16T15:15:05;20.15;53.05
75010;DHT22;63564;46.840;18.336;2022-10-16T15:18:15;19.77;54.47
75010;DHT22;63564;46.840;18.336;2022-10-16T15:21:31;19.71;54.55
75010;DHT22;63564;46.840;18.336;2022-10-16T15:24:31;19.63;54.72
75010;DHT22;63564;46.840;18.336;2022-10-16T15:27:32;19.49;55.21
75010;DHT22;63564;46.840;18.336;2022-10-16T15:30:40;19.38;55.50
75010;DHT22;63564;46.840;18.336;2022-10-16T15:33:40;19.19;56.03
75010;DHT22;63564;46.840;18.336;2022-10-16T15:36:41;19.03;56.48
75010;DHT22;63564;46.840;18.336;2022-10-16T15:39:41;19.02;56.69
75010;DHT22;63564;46.840;18.336;2022-10-16T15:42:41;18.95;56.77
75010;DHT22;63564;46.840;18.336;2022-10-16T15:45:42;18.68;57.75
75010;DHT22;63564;46.840;18.336;2022-10-16T15:48:42;18.67;57.87
75010;DHT22;63564;46.840;18.336;2022-10-16T15:51:43;18.47;58.52
75010;DHT22;63564;46.840;18.336;2022-10-16T15:54:43;18.30;58.65
75010;DHT22;63564;46.840;18.336;2022-10-16T15:57:45;18.37;58.54
75010;DHT22;63564;46.840;18.336;2022-10-16T16:00:45;18.30;58.77
75010;DHT22;63564;46.840;18.336;2022-10-16T16:03:45;18.13;59.11
75010;DHT22;63564;46.840;18.336;2022-10-16T16:06:46;17.99;59.36
75010;DHT22;63564;46.840;18.336;2022-10-16T16:09:46;17.90;59.59
75010;DHT22;63564;46.840;18.336;2022-10-16T16:12:48;17.72;60.41
75010;DHT22;63564;46.840;18.336;2022-10-16T16:15:52;17.58;61.02
75010;DHT22;63564;46.840;18.336;2022-10-16T16:18:53;17.45;61.22
75010;DHT22;63564;46.840;18.336;2022-10-16T16:21:53;17.27;62.01
75010;DHT22;63564;46.840;18.336;2022-10-16T16:24:53;17.07;63.23
75010;DHT22;63564;46.840;18.336;2022-10-16T16:27:54;16.92;63.22
75010;DHT22;63564;46.840;18.336;2022-10-16T16:30:54;16.79;63.74
75010;DHT22;63564;46.840;18.336;2022-10-16T16:33:55;16.65;64.45
75010;DHT22;63564;46.840;18.336;2022-10-16T16:36:56;16.41;65.37
75010;DHT22;63564;46.840;18.336;2022-10-16T16:39:57;16.20;65.70
75010;DHT22;63564;46.840;18.336;2022-10-16T16:43:00;16.06;66.71
75010;DHT22;63564;46.840;18.336;2022-10-16T16:46:01;15.96;66.31
75010;DHT22;63564;46.840;18.336;2022-10-16T16:49:02;15.97;66.20
75010;DHT22;63564;46.840;18.336;2022-10-16T16:52:03;15.96;66.80
75010;DHT22;63564;46.840;18.336;2022-10-16T16:55:04;15.94;66.69
75010;DHT22;63564;46.840;18.336;2022-10-16T16:58:04;15.85;66.56
75010;DHT22;63564;46.840;18.336;2022-10-16T17:01:05;15.76;67.49
75010;DHT22;63564;46.840;18.336;2022-10-16T17:04:06;15.70;67.22
75010;DHT22;63564;46.840;18.336;2022-10-16T17:07:07;15.56;67.49
75010;DHT22;63564;46.840;18.336;2022-10-16T17:10:08;15.49;68.03
75010;DHT22;63564;46.840;18.336;2022-10-16T17:13:08;15.39;68.53
75010;DHT22;63564;46.840;18.336;2022-10-16T17:16:09;15.31;68.26
75010;DHT22;63564;46.840;18.336;2022-10-16T17:19:12;15.28;68.02
75010;DHT22;63564;46.840;18.336;2022-10-16T17:22:13;15.10;68.64
75010;DHT22;63564;46.840;18.336;2022-10-16T17:25:14;14.98;69.76
75010;DHT22;63564;46.840;18.336;2022-10-16T17:28:14;15.03;69.37
75010;DHT22;63564;46.840;18.336;2022-10-16T17:31:17;15.07;68.78
75010;DHT22;63564;46.840;18.336;2022-10-16T17:34:18;15.00;68.95
75010;DHT22;63564;46.840;18.336;2022-10-16T17:37:18;14.98;69.34
75010;DHT22;63564;46.840;18.336;2022-10-16T17:40:19;14.91;69.79
75010;DHT22;63564;46.840;18.336;2022-10-16T17:43:19;14.90;69.32
75010;DHT22;63564;46.840;18.336;2022-10-16T17:46:21;14.76;69.59
75010;DHT22;63564;46.840;18.336;2022-10-16T17:49:22;14.66;69.79
75010;DHT22;63564;46.840;18.336;2022-10-16T17:52:23;14.57;70.07
75010;DHT22;63564;46.840;18.336;2022-10-16T17:55:23;14.50;70.26
75010;DHT22;63564;46.840;18.336;2022-10-16T17:58:24;14.56;69.80
75010;DHT22;63564;46.840;18.336;2022-10-16T18:01:30;14.52;70.15
75010;DHT22;63564;46.840;18.336;2022-10-16T18:04:31;14.63;69.44
75010;DHT22;63564;46.840;18.336;2022-10-16T18:07:31;14.75;69.09
75010;DHT22;63564;46.840;18.336;2022-10-16T18:10:32;14.80;68.81
75010;DHT22;63564;46.840;18.336;2022-10-16T18:13:32;14.94;68.35
75010;DHT22;63564;46.840;18.336;2022-10-16T18:16:32;14.95;68.65
75010;DHT22;63564;46.840;18.336;2022-10-16T18:19:35;14.90;69.56
75010;DHT22;63564;46.840;18.336;2022-10-16T18:22:35;14.83;68.93
75010;DHT22;63564;46.840;18.336;2022-10-16T18:25:36;14.73;69.56
75010;DHT22;63564;46.840;18.336;2022-10-16T18:28:36;14.66;69.62
75010;DHT22;63564;46.840;18.336;2022-10-16T18:31:37;14.48;70.19
75010;DHT22;63564;46.840;18.336;2022-10-16T18:34:38;14.36;70.68
75010;DHT22;63564;46.840;18.336;2022-10-16T18:37:38;14.35;70.90
75010;DHT22;63564;46.840;18.336;2022-10-16T18:40:39;14.35;70.80
75010;DHT22;63564;46.840;18.336;2022-10-16T18:43:39;14.33;70.67
75010;DHT22;63564;46.840;18.336;2022-10-16T18:46:39;14.30;70.96
75010;DHT22;63564;46.840;18.336;2022-10-16T18:49:40;14.33;70.75
75010;DHT22;63564;46.840;18.336;2022-10-16T18:52:46;14.30;70.51
75010;DHT22;63564;46.840;18.336;2022-10-16T18:55:53;14.35;70.68
75010;DHT22;63564;46.840;18.336;2022-10-16T18:58:53;14.28;71.10
75010;DHT22;63564;46.840;18.336;2022-10-16T19:01:53;14.19;71.11
75010;DHT22;63564;46.840;18.336;2022-10-16T19:04:54;14.08;71.54
75010;DHT22;63564;46.840;18.336;2022-10-16T19:07:54;14.00;71.80
75010;DHT22;63564;46.840;18.336;2022-10-16T19:10:55;14.00;71.89
75010;DHT22;63564;46.840;18.336;2022-10-16T19:13:56;14.04;71.73
75010;DHT22;63564;46.840;18.336;2022-10-16T19:16:56;14.12;71.47
75010;DHT22;63564;46.840;18.336;2022-10-16T19:19:57;14.25;70.62
75010;DHT22;63564;46.840;18.336;2022-10-16T19:22:57;14.26;70.77
75010;DHT22;63564;46.840;18.336;2022-10-16T19:26:07;14.36;70.46
75010;DHT22;63564;46.840;18.336;2022-10-16T19:29:08;14.67;68.73
75010;DHT22;63564;46.840;18.336;2022-10-16T19:32:08;14.76;68.61
75010;DHT22;63564;46.840;18.336;2022-10-16T19:35:09;14.84;68.29
75010;DHT22;63564;46.840;18.336;2022-10-16T19:38:09;14.88;68.10
75010;DHT22;63564;46.840;18.336;2022-10-16T19:41:14;14.91;67.62
75010;DHT22;63564;46.840;18.336;2022-10-16T19:44:16;15.01;67.57
75010;DHT22;63564;46.840;18.336;2022-10-16T19:47:16;15.17;67.11
75010;DHT22;63564;46.840;18.336;2022-10-16T19:50:17;15.10;67.04
75010;DHT22;63564;46.840;18.336;2022-10-16T19:53:18;15.10;67.06
75010;DHT22;63564;46.840;18.336;2022-10-16T19:56:20;15.12;67.21
75010;DHT22;63564;46.840;18.336;2022-10-16T19:59:21;15.04;67.66
75010;DHT22;63564;46.840;18.336;2022-10-16T20:02:21;15.03;67.67
75010;DHT22;63564;46.840;18.336;2022-10-16T20:05:21;14.98;67.60
75010;DHT22;63564;46.840;18.336;2022-10-16T20:08:22;14.95;67.79
75010;DHT22;63564;46.840;18.336;2022-10-16T20:11:25;14.87;67.95
75010;DHT22;63564;46.840;18.336;2022-10-16T20:14:27;14.93;67.84
75010;DHT22;63564;46.840;18.336;2022-10-16T20:17:27;14.97;67.97
75010;DHT22;63564;46.840;18.336;2022-10-16T20:20:28;14.94;68.09
75010;DHT22;63564;46.840;18.336;2022-10-16T20:23:28;14.90;67.96
75010;DHT22;63564;46.840;18.336;2022-10-16T20:26:28;14.84;68.26
75010;DHT22;63564;46.840;18.336;2022-10-16T20:29:28;14.84;68.38
75010;DHT22;63564;46.840;18.336;2022-10-16T20:32:29;14.83;68.40
75010;DHT22;63564;46.840;18.336;2022-10-16T20:35:35;14.84;68.25